createdAt,value
2017-06-21T00:02:16.794Z,19.77
2017-06-21T00:05:11.499Z,19.74
2017-06-21T00:08:06.274Z,19.71
2017-06-21T00:11:00.991Z,19.67
2017-06-21T00:13:55.712Z,19.64
2017-06-21T00:16:50.475Z,19.61
2017-06-21T00:19:45.066Z,19.59
2017-06-21T00:22:39.629Z,19.57
2017-06-21T00:25:34.240Z,19.56
2017-06-21T00:28:28.670Z,19.53
2017-06-21T00:31:23.132Z,19.49
2017-06-21T00:34:17.519Z,19.45
2017-06-21T00:37:11.963Z,19.43
2017-06-21T00:40:06.431Z,19.40
2017-06-21T00:43:01.100Z,19.37
2017-06-21T00:45:55.927Z,19.35
2017-06-21T00:48:50.768Z,19.34
2017-06-21T00:51:45.723Z,19.31
2017-06-21T00:54:40.561Z,19.29
2017-06-21T00:57:35.532Z,19.26
2017-06-21T01:00:30.315Z,19.23
2017-06-21T01:03:25.057Z,19.20
2017-06-21T01:06:19.911Z,19.18
2017-06-21T01:09:14.885Z,19.17
2017-06-21T01:12:09.794Z,19.17
2017-06-21T01:15:04.539Z,19.17
2017-06-21T01:17:59.233Z,19.15
2017-06-21T01:20:53.722Z,19.09
2017-06-21T01:23:48.246Z,19.05
2017-06-21T01:26:42.750Z,19.00
2017-06-21T01:29:37.334Z,18.97
2017-06-21T01:32:32.014Z,18.95
2017-06-21T01:35:26.310Z,18.92
2017-06-21T01:38:20.633Z,18.89
2017-06-21T01:41:14.896Z,18.86
2017-06-21T01:44:09.130Z,18.81
2017-06-21T01:47:03.265Z,18.78
2017-06-21T01:49:56.411Z,18.77
2017-06-21T01:52:50.086Z,18.76
2017-06-21T01:55:44.272Z,18.72
2017-06-21T01:58:38.794Z,18.66
2017-06-21T02:01:33.189Z,18.62
2017-06-21T02:04:27.746Z,18.60
2017-06-21T02:07:22.025Z,18.58
2017-06-21T02:10:16.376Z,18.55
2017-06-21T02:13:10.878Z,18.47
2017-06-21T02:16:05.504Z,18.38
2017-06-21T02:19:00.213Z,18.29
2017-06-21T02:21:54.913Z,18.21
2017-06-21T02:24:49.531Z,18.11
2017-06-21T02:27:44.242Z,18.04
2017-06-21T02:30:38.611Z,17.98
2017-06-21T02:33:32.406Z,17.94
2017-06-21T02:36:26.537Z,17.89
2017-06-21T02:39:21.373Z,17.83
2017-06-21T02:42:16.209Z,17.80
2017-06-21T02:50:59.996Z,17.67
2017-06-21T02:53:54.633Z,17.64
2017-06-21T02:56:49.514Z,17.61
2017-06-21T03:02:38.860Z,17.56
2017-06-21T03:05:33.547Z,17.51
2017-06-21T03:08:28.561Z,17.47
2017-06-21T03:11:23.390Z,17.43
2017-06-21T03:14:18.348Z,17.39
2017-06-21T03:17:13.181Z,17.36
2017-06-21T03:20:09.465Z,17.33
2017-06-21T03:23:02.971Z,17.26
2017-06-21T03:31:48.245Z,17.13
2017-06-21T03:34:43.408Z,17.11
2017-06-21T03:38:01.256Z,17.10
2017-06-21T03:41:12.256Z,17.09
2017-06-21T03:44:45.670Z,17.11
2017-06-21T03:47:32.142Z,17.15
2017-06-21T03:58:10.390Z,17.53
2017-06-21T04:00:54.623Z,17.70
2017-06-21T04:03:48.927Z,17.72
2017-06-21T04:06:43.723Z,17.67
2017-06-21T04:09:38.705Z,17.58
2017-06-21T04:12:33.671Z,17.48
2017-06-21T04:28:56.766Z,17.88
2017-06-21T04:31:40.915Z,18.04
2017-06-21T04:34:35.124Z,18.09
2017-06-21T04:37:29.957Z,18.07
2017-06-21T04:40:25.022Z,18.04
2017-06-21T04:43:20.159Z,18.02
2017-06-21T04:46:15.384Z,18.00
2017-06-21T04:56:53.985Z,18.46
2017-06-21T04:59:38.295Z,18.68
2017-06-21T05:02:32.710Z,18.78
2017-06-21T05:05:27.479Z,18.83
2017-06-21T05:08:22.663Z,18.86
2017-06-21T05:11:17.921Z,18.87
2017-06-21T05:14:13.169Z,18.89
2017-06-21T05:17:08.484Z,18.92
2017-06-21T05:25:54.552Z,19.06
2017-06-21T05:31:45.548Z,19.18
2017-06-21T05:34:40.967Z,19.25
2017-06-21T05:37:36.332Z,19.32
2017-06-21T05:40:31.752Z,19.39
2017-06-21T05:43:27.348Z,19.48
2017-06-21T05:46:22.846Z,19.57
2017-06-21T05:49:18.180Z,19.66
2017-06-21T05:52:13.599Z,19.74
2017-06-21T05:58:04.554Z,19.94
2017-06-21T06:00:59.870Z,20.04
2017-06-21T06:03:55.257Z,20.14
2017-06-21T06:06:50.768Z,20.25
2017-06-21T06:12:41.489Z,20.45
2017-06-21T06:15:36.987Z,20.56
2017-06-21T06:21:28.027Z,20.82
2017-06-21T06:24:23.650Z,20.94
2017-06-21T06:27:19.148Z,21.04
2017-06-21T06:30:14.718Z,21.16
2017-06-21T06:36:05.756Z,21.37
2017-06-21T06:39:01.226Z,21.50
2017-06-21T06:44:52.393Z,21.72
2017-06-21T06:47:47.903Z,21.82
2017-06-21T06:53:38.986Z,22.03
2017-06-21T06:59:30.200Z,22.24
2017-06-21T07:02:25.748Z,22.35
2017-06-21T07:05:21.408Z,22.47
2017-06-21T07:08:17.045Z,22.60
2017-06-21T07:11:12.792Z,22.74
2017-06-21T07:14:08.455Z,22.84
2017-06-21T07:17:04.227Z,22.94
2017-06-21T07:19:59.697Z,23.03
2017-06-21T07:22:55.390Z,23.11
2017-06-21T07:25:51.109Z,23.21
2017-06-21T07:28:46.698Z,23.33
2017-06-21T07:31:42.342Z,23.43
2017-06-21T07:34:38.028Z,23.53
2017-06-21T07:37:33.782Z,23.59
2017-06-21T07:40:29.422Z,23.63
2017-06-21T07:43:24.959Z,23.65
2017-06-21T07:49:16.184Z,23.70
2017-06-21T07:52:11.900Z,23.76
2017-06-21T07:55:07.698Z,23.85
2017-06-21T07:58:03.301Z,23.93
2017-06-21T08:00:59.008Z,24.03
2017-06-21T08:06:50.509Z,24.19
2017-06-21T08:09:46.419Z,24.30
2017-06-21T08:12:42.269Z,24.43
2017-06-21T08:21:30.260Z,25.08
2017-06-21T08:24:26.443Z,25.39
2017-06-21T08:27:22.629Z,25.71
2017-06-21T08:33:14.829Z,26.31
2017-06-21T08:36:10.997Z,26.55
2017-06-21T08:39:07.177Z,26.79
2017-06-21T08:42:03.398Z,27.00
2017-06-21T08:44:59.466Z,27.20
2017-06-21T08:47:55.523Z,27.41
2017-06-21T08:50:51.595Z,27.66
2017-06-21T08:53:47.716Z,27.87
2017-06-21T08:56:43.804Z,28.11
2017-06-21T08:59:40.096Z,28.40
2017-06-21T09:02:36.413Z,28.68
2017-06-21T09:05:32.692Z,28.99
2017-06-21T09:08:28.936Z,29.33
2017-06-21T09:11:25.068Z,29.66
2017-06-21T09:14:21.227Z,29.98
2017-06-21T09:17:17.193Z,30.34
2017-06-21T09:20:13.293Z,30.64
2017-06-21T09:23:09.452Z,30.92
2017-06-21T09:26:05.647Z,31.24
2017-06-21T09:29:01.845Z,31.50
2017-06-21T09:31:58.043Z,31.69
2017-06-21T09:34:54.326Z,31.89
2017-06-21T09:37:50.698Z,32.22
2017-06-21T09:40:47.060Z,32.57
2017-06-21T09:43:43.367Z,32.97
2017-06-21T09:46:39.727Z,33.21
2017-06-21T09:49:36.063Z,33.55
2017-06-21T09:52:32.450Z,33.92
2017-06-21T09:55:28.839Z,34.26
2017-06-21T09:58:25.201Z,34.57
2017-06-21T10:01:21.386Z,34.98
2017-06-21T10:04:17.326Z,35.19
2017-06-21T10:07:13.484Z,35.21
2017-06-21T10:10:09.801Z,35.53
2017-06-21T10:13:05.973Z,35.77
2017-06-21T10:16:02.252Z,35.97
2017-06-21T10:18:58.461Z,36.16
2017-06-21T10:21:54.716Z,36.47
2017-06-21T10:24:50.871Z,36.83
2017-06-21T10:27:46.971Z,37.10
2017-06-21T10:30:42.879Z,37.09
2017-06-21T10:33:38.363Z,36.80
2017-06-21T10:36:33.665Z,36.36
2017-06-21T10:39:29.025Z,35.79
2017-06-21T10:42:24.414Z,35.10
2017-06-21T10:45:19.820Z,34.49
2017-06-21T10:48:15.280Z,33.93
2017-06-21T10:51:10.736Z,33.44
2017-06-21T10:54:06.231Z,32.90
2017-06-21T10:57:01.496Z,32.33
2017-06-21T10:59:56.645Z,31.82
2017-06-21T11:02:51.970Z,31.41
2017-06-21T11:05:47.232Z,31.04
2017-06-21T11:08:42.536Z,30.71
2017-06-21T11:11:37.952Z,30.40
2017-06-21T11:14:33.609Z,30.10
2017-06-21T11:17:28.976Z,29.81
2017-06-21T11:20:24.440Z,29.53
2017-06-21T11:23:19.925Z,29.19
2017-06-21T11:26:15.448Z,28.89
2017-06-21T11:29:10.939Z,28.61
2017-06-21T11:32:06.163Z,28.37
2017-06-21T11:35:01.434Z,28.16
2017-06-21T11:37:56.901Z,27.96
2017-06-21T11:40:52.128Z,27.78
2017-06-21T11:43:47.463Z,27.63
2017-06-21T11:46:42.908Z,27.47
2017-06-21T11:49:38.467Z,27.33
2017-06-21T11:52:33.860Z,27.19
2017-06-21T11:55:29.332Z,27.04
2017-06-21T11:58:24.756Z,26.94
2017-06-21T12:01:20.300Z,26.88
2017-06-21T12:04:15.946Z,26.84
2017-06-21T12:07:11.492Z,26.80
2017-06-21T12:10:07.141Z,26.76
2017-06-21T12:15:58.461Z,26.73
2017-06-21T12:18:54.129Z,26.71
2017-06-21T12:21:49.744Z,26.65
2017-06-21T12:24:46.463Z,26.63
2017-06-21T12:27:41.002Z,26.61
2017-06-21T12:30:36.574Z,26.61
2017-06-21T12:33:32.194Z,26.58
2017-06-21T12:36:28.022Z,26.55
2017-06-21T12:39:23.578Z,26.53
2017-06-21T12:42:19.248Z,26.50
2017-06-21T12:45:14.845Z,26.44
2017-06-21T12:48:10.476Z,26.35
2017-06-21T12:51:05.999Z,26.27
2017-06-21T12:54:01.484Z,26.20
2017-06-21T12:56:56.963Z,26.15
2017-06-21T12:59:52.606Z,26.11
2017-06-21T13:02:48.156Z,26.07
2017-06-21T13:05:43.777Z,26.03
2017-06-21T13:08:39.267Z,25.98
2017-06-21T13:11:34.765Z,25.93
2017-06-21T13:14:30.222Z,25.92
2017-06-21T13:17:25.871Z,25.91
2017-06-21T13:20:21.411Z,25.91
2017-06-21T13:23:16.991Z,25.91
2017-06-21T13:26:12.500Z,25.90
2017-06-21T13:29:08.027Z,25.90
2017-06-21T13:32:03.574Z,25.90
2017-06-21T13:34:59.097Z,25.87
2017-06-21T13:37:54.535Z,25.83
2017-06-21T13:40:50.169Z,25.78
2017-06-21T13:43:45.739Z,25.74
2017-06-21T13:46:41.125Z,25.70
2017-06-21T13:49:36.714Z,25.68
2017-06-21T13:52:32.179Z,25.67
2017-06-21T13:55:27.803Z,25.67
2017-06-21T13:58:23.274Z,25.65
2017-06-21T14:01:18.780Z,25.64
2017-06-21T14:04:14.243Z,25.63
2017-06-21T14:07:09.829Z,25.62
2017-06-21T14:10:05.227Z,25.61
2017-06-21T14:13:00.787Z,25.58
2017-06-21T14:15:56.187Z,25.54
2017-06-21T14:18:51.623Z,25.49
2017-06-21T14:21:47.296Z,25.46
2017-06-21T14:24:42.781Z,25.45
2017-06-21T14:27:38.225Z,25.44
2017-06-21T14:30:33.908Z,25.43
2017-06-21T14:33:29.461Z,25.41
2017-06-21T14:36:24.961Z,25.40
2017-06-21T14:39:20.389Z,25.39
2017-06-21T14:42:15.737Z,25.38
2017-06-21T14:45:11.269Z,25.36
2017-06-21T14:51:02.180Z,25.34
2017-06-21T14:53:57.634Z,25.34
2017-06-21T14:56:53.214Z,25.33
2017-06-21T14:59:48.672Z,25.32
2017-06-21T15:02:44.044Z,25.31
2017-06-21T15:05:39.487Z,25.30
2017-06-21T15:08:35.000Z,25.29
2017-06-21T15:11:30.460Z,25.28
2017-06-21T15:14:25.999Z,25.26
2017-06-21T15:17:21.367Z,25.24
2017-06-21T15:20:16.785Z,25.23
2017-06-21T15:23:12.202Z,25.23
2017-06-21T15:26:07.595Z,25.22
2017-06-21T15:29:03.095Z,25.22
2017-06-21T15:31:58.496Z,25.22
2017-06-21T15:34:53.797Z,25.22
2017-06-21T15:40:44.603Z,25.21
2017-06-21T15:43:39.994Z,25.21
2017-06-21T15:46:35.384Z,25.21
2017-06-21T15:49:30.802Z,25.23
2017-06-21T15:52:26.284Z,25.24
2017-06-21T15:55:21.689Z,25.25
2017-06-21T15:58:17.095Z,25.26
2017-06-21T16:01:12.394Z,25.27
2017-06-21T16:07:03.211Z,25.27
2017-06-21T16:09:58.610Z,25.27
2017-06-21T16:12:53.977Z,25.26
2017-06-21T16:15:49.376Z,25.26
2017-06-21T16:21:40.421Z,25.24
2017-06-21T16:27:31.143Z,25.20
2017-06-21T16:30:26.449Z,25.18
2017-06-21T16:33:21.888Z,25.15
2017-06-21T16:36:17.357Z,25.11
2017-06-21T16:39:12.784Z,25.08
2017-06-21T16:42:08.125Z,25.05
2017-06-21T16:45:03.551Z,25.04
2017-06-21T16:47:58.974Z,25.03
2017-06-21T16:50:54.504Z,25.02
2017-06-21T16:53:49.828Z,25.02
2017-06-21T16:56:45.238Z,25.01
2017-06-21T16:59:40.648Z,25.00
2017-06-21T17:02:36.013Z,24.99
2017-06-21T17:05:31.370Z,24.98
2017-06-21T17:08:26.647Z,24.97
2017-06-21T17:11:21.977Z,24.96
2017-06-21T17:14:17.375Z,24.94
2017-06-21T17:17:12.729Z,24.91
2017-06-21T17:20:08.053Z,24.91
2017-06-21T17:23:03.395Z,24.92
2017-06-21T17:25:58.684Z,24.93
2017-06-21T17:28:54.250Z,24.95
2017-06-21T17:31:49.404Z,24.96
2017-06-21T17:34:44.797Z,24.97
2017-06-21T17:37:40.201Z,24.97
2017-06-21T17:40:35.537Z,24.97
2017-06-21T17:43:30.774Z,24.96
2017-06-21T17:46:26.125Z,24.94
2017-06-21T17:49:21.341Z,24.91
2017-06-21T17:52:16.720Z,24.87
2017-06-21T17:55:12.006Z,24.84
2017-06-21T17:58:07.246Z,24.81
2017-06-21T18:01:02.570Z,24.78
2017-06-21T18:03:57.863Z,24.76
2017-06-21T18:06:53.184Z,24.72
2017-06-21T18:09:48.454Z,24.70
2017-06-21T18:12:43.811Z,24.67
2017-06-21T18:15:39.158Z,24.64
2017-06-21T18:18:34.587Z,24.60
2017-06-21T18:21:29.962Z,24.57
2017-06-21T18:24:25.233Z,24.54
2017-06-21T18:27:20.445Z,24.52
2017-06-21T18:30:15.737Z,24.50
2017-06-21T18:33:11.043Z,24.48
2017-06-21T18:36:06.324Z,24.44
2017-06-21T18:39:01.499Z,24.41
2017-06-21T18:41:56.706Z,24.38
2017-06-21T18:44:51.997Z,24.34
2017-06-21T18:47:47.188Z,24.31
2017-06-21T18:50:42.423Z,24.27
2017-06-21T18:53:37.564Z,24.23
2017-06-21T18:56:32.745Z,24.19
2017-06-21T18:59:28.029Z,24.15
2017-06-21T19:02:23.264Z,24.10
2017-06-21T19:05:18.513Z,24.07
2017-06-21T19:08:13.819Z,24.03
2017-06-21T19:11:09.198Z,23.98
2017-06-21T19:14:04.645Z,23.93
2017-06-21T19:16:59.936Z,23.88
2017-06-21T19:19:55.289Z,23.83
2017-06-21T19:22:50.573Z,23.79
2017-06-21T19:25:45.880Z,23.75
2017-06-21T19:28:41.245Z,23.71
2017-06-21T19:31:36.645Z,23.67
2017-06-21T19:34:32.010Z,23.61
2017-06-21T19:40:22.753Z,23.52
2017-06-21T19:43:18.093Z,23.48
2017-06-21T19:46:13.349Z,23.43
2017-06-21T19:49:08.662Z,23.37
2017-06-21T19:54:59.280Z,23.22
2017-06-21T19:57:54.564Z,23.14
2017-06-21T20:00:49.924Z,23.09
2017-06-21T20:03:45.146Z,23.03
2017-06-21T20:06:40.348Z,22.97
2017-06-21T20:09:35.705Z,22.92
2017-06-21T20:12:30.854Z,22.85
2017-06-21T20:15:26.102Z,22.79
2017-06-21T20:18:21.340Z,22.72
2017-06-21T20:21:16.542Z,22.66
2017-06-21T20:24:11.770Z,22.60
2017-06-21T20:27:07.060Z,22.54
2017-06-21T20:30:02.194Z,22.49
2017-06-21T20:32:57.550Z,22.42
2017-06-21T20:41:43.334Z,22.26
2017-06-21T20:44:38.539Z,22.22
2017-06-21T20:47:33.771Z,22.18
2017-06-21T20:50:29.005Z,22.14
2017-06-21T20:53:24.258Z,22.11
2017-06-21T20:56:19.490Z,22.08
2017-06-21T20:59:14.801Z,22.05
2017-06-21T21:02:10.001Z,22.03
2017-06-21T21:05:05.178Z,22.00
2017-06-21T21:08:00.319Z,21.96
2017-06-21T21:10:55.571Z,21.93
2017-06-21T21:13:50.654Z,21.91
2017-06-21T21:16:45.891Z,21.88
2017-06-21T21:19:41.156Z,21.87
2017-06-21T21:22:36.253Z,21.85
2017-06-21T21:25:31.357Z,21.83
2017-06-21T21:28:26.560Z,21.81
2017-06-21T21:31:21.675Z,21.78
2017-06-21T21:34:16.956Z,21.76
2017-06-21T21:37:12.180Z,21.74
2017-06-21T21:40:07.349Z,21.72
2017-06-21T21:43:02.519Z,21.68
2017-06-21T21:45:57.616Z,21.64
2017-06-21T21:48:52.607Z,21.61
2017-06-21T21:51:47.755Z,21.58
2017-06-21T21:54:42.843Z,21.54
2017-06-21T21:57:37.906Z,21.50
2017-06-21T22:03:28.087Z,21.42
2017-06-21T22:06:23.185Z,21.38
2017-06-21T22:09:18.139Z,21.33
2017-06-21T22:12:13.185Z,21.26
2017-06-21T22:15:08.122Z,21.22
2017-06-21T22:18:03.209Z,21.19
2017-06-21T22:20:58.139Z,21.19
2017-06-21T22:23:53.109Z,21.17
2017-06-21T22:26:48.078Z,21.16
2017-06-21T22:29:43.043Z,21.15
2017-06-21T22:32:38.081Z,21.16
2017-06-21T22:35:33.008Z,21.17
2017-06-21T22:38:27.994Z,21.18
2017-06-21T22:41:22.991Z,21.17
2017-06-21T22:44:17.841Z,21.16
2017-06-21T22:47:12.838Z,21.12
2017-06-21T22:50:07.861Z,21.12
2017-06-21T22:53:02.761Z,21.13
2017-06-21T22:55:57.570Z,21.11
2017-06-21T22:58:52.552Z,21.05
2017-06-21T23:01:47.397Z,21.04
2017-06-21T23:04:42.407Z,21.02
2017-06-21T23:07:37.346Z,20.96
2017-06-21T23:13:27.451Z,20.91
2017-06-21T23:16:22.567Z,20.90
2017-06-21T23:19:17.542Z,20.89
2017-06-21T23:22:12.658Z,20.88
2017-06-21T23:25:07.696Z,20.87
2017-06-21T23:28:02.840Z,20.86
2017-06-21T23:30:57.868Z,20.86
2017-06-21T23:33:52.989Z,20.86
2017-06-21T23:36:48.001Z,20.86
2017-06-21T23:39:43.043Z,20.85
2017-06-21T23:42:38.086Z,20.84
2017-06-21T23:45:33.087Z,20.82
2017-06-21T23:48:28.076Z,20.81
2017-06-21T23:51:22.998Z,20.80
2017-06-21T23:57:13.005Z,20.76
